Time;durP1;ratioP1;P1;durP2;ratioP2;P2;SDS_P1;SDS_P2;PMS_P1;PMS_P2;Temp;Humidity;BMP_temperature;BMP_pressure;BME280_temperature;BME280_humidity;BME280_pressure;Samples;Min_cycle;Max_cycle;Signal;HPM_P1;HPM_P2
2022/04/15 00:02:01;;;;;;;9.43;5.40;;;11.30;53.70;;;11.48;44.05;95406.56;5059314;28;20634;-55
2022/04/15 00:04:31;;;;;;;8.40;6.60;;;11.30;53.90;;;11.46;43.89;95411.97;5063861;28;20514;-55
2022/04/15 00:06:59;;;;;;;12.03;6.40;;;11.30;53.90;;;11.44;44.19;95410.41;5054396;28;20554;-57
2022/04/15 00:09:28;;;;;;;11.23;5.97;;;11.30;54.00;;;11.43;43.77;95408.72;5051445;28;20990;-55
2022/04/15 00:11:56;;;;;;;11.00;5.97;;;11.30;53.90;;;11.44;44.10;95418.31;5057813;28;20459;-56
2022/04/15 00:14:23;;;;;;;8.43;6.00;;;11.30;53.90;;;11.43;43.92;95420.13;5047208;28;20521;-56
2022/04/15 00:16:50;;;;;;;14.90;6.40;;;11.30;53.90;;;11.42;43.75;95415.81;5058038;28;20516;-56
2022/04/15 00:19:18;;;;;;;9.70;6.20;;;11.30;53.60;;;11.41;43.48;95414.13;5060081;28;20462;-56
2022/04/15 00:21:46;;;;;;;11.90;5.97;;;11.30;53.50;;;11.40;43.52;95416.91;5059779;28;20470;-55
2022/04/15 00:24:13;;;;;;;11.00;5.70;;;11.30;53.80;;;11.39;43.63;95420.53;5059687;28;20549;-56
2022/04/15 00:26:42;;;;;;;20.33;5.90;;;11.20;53.40;;;11.37;43.63;95412.75;5056273;28;20482;-55
2022/04/15 00:29:09;;;;;;;10.30;6.53;;;11.20;54.10;;;11.35;43.99;95417.28;5060519;28;21428;-55
2022/04/15 00:31:36;;;;;;;15.50;6.90;;;11.20;53.90;;;11.33;43.96;95424.50;5056744;28;20756;-55
2022/04/15 00:34:03;;;;;;;14.73;6.00;;;11.20;54.00;;;11.32;43.91;95422.81;5051648;28;20792;-57
2022/04/15 00:36:31;;;;;;;13.30;7.50;;;11.20;54.00;;;11.31;43.80;95421.16;5059084;28;20481;-56
2022/04/15 00:38:58;;;;;;;9.33;6.43;;;11.20;53.80;;;11.28;44.04;95411.72;5061153;28;20466;-55
2022/04/15 00:41:25;;;;;;;14.37;6.60;;;11.10;53.90;;;11.28;44.11;95413.53;5059605;28;20468;-55
2022/04/15 00:43:58;;;;;;;16.20;6.40;;;11.10;54.00;;;11.26;44.09;95416.28;5061099;28;20455;-55
2022/04/15 00:46:25;;;;;;;11.03;5.80;;;11.10;54.20;;;11.24;44.04;95412.94;5058172;28;20484;-57
2022/04/15 00:48:52;;;;;;;7.07;5.93;;;11.10;53.90;;;11.21;44.06;95415.84;5057267;28;20456;-56
2022/04/15 00:51:20;;;;;;;16.93;6.73;;;11.10;54.00;;;11.19;44.16;95409.88;5053360;28;20480;-55
2022/04/15 00:53:47;;;;;;;12.00;6.13;;;11.10;54.60;;;11.17;44.44;95413.59;5057683;28;20552;-56
2022/04/15 00:56:15;;;;;;;8.37;6.47;;;11.00;54.60;;;11.16;44.69;95409.31;5056724;28;20532;-55
2022/04/15 00:58:42;;;;;;;9.13;7.30;;;11.00;55.00;;;11.14;44.58;95417.34;5059277;28;20454;-56
2022/04/15 01:01:11;;;;;;;13.60;6.47;;;11.00;55.00;;;11.13;44.40;95421.75;5062471;28;20969;-55
2022/04/15 01:03:38;;;;;;;12.13;7.13;;;11.00;54.80;;;11.11;44.58;95422.88;5056839;28;20452;-56
2022/04/15 01:06:07;;;;;;;9.83;5.63;;;11.00;54.80;;;11.08;44.62;95426.56;5056560;28;20495;-56
2022/04/15 01:08:39;;;;;;;14.17;7.07;;;10.90;54.90;;;11.07;44.54;95426.69;5053297;28;20490;-56
2022/04/15 01:11:07;;;;;;;21.60;6.97;;;10.90;54.80;;;11.04;44.89;95419.06;5055295;28;21109;-56
2022/04/15 01:13:36;;;;;;;23.93;5.90;;;10.90;54.70;;;11.00;44.68;95415.88;5057440;28;20497;-55
2022/04/15 01:16:03;;;;;;;12.57;6.60;;;10.90;55.20;;;10.98;44.94;95415.13;5061309;28;20525;-57
2022/04/15 01:18:32;;;;;;;14.40;7.20;;;10.80;55.60;;;10.96;45.06;95411.81;5059060;28;20463;-55
2022/04/15 01:21:00;;;;;;;14.23;6.20;;;10.80;55.60;;;10.93;45.02;95415.53;5060531;28;20562;-55
2022/04/15 01:23:29;;;;;;;13.23;6.37;;;10.80;55.70;;;10.91;45.13;95411.38;5059847;28;20460;-56
2022/04/15 01:25:56;;;;;;;8.13;5.47;;;10.80;55.90;;;10.88;45.42;95411.63;5056533;28;20487;-56
2022/04/15 01:28:24;;;;;;;22.17;6.23;;;10.80;56.10;;;10.84;45.65;95416.28;5055632;28;20467;-57
2022/04/15 01:30:51;;;;;;;10.50;5.87;;;10.70;55.80;;;10.80;45.22;95412.28;5050920;28;20479;-55
2022/04/15 01:33:18;;;;;;;14.80;6.40;;;10.70;55.80;;;10.77;45.05;95413.34;5057735;28;20464;-55
2022/04/15 01:35:46;;;;;;;11.07;6.33;;;10.70;55.80;;;10.76;45.31;95401.16;5058778;28;20481;-55
2022/04/15 01:38:14;;;;;;;14.53;7.30;;;10.60;56.00;;;10.71;45.40;95400.69;5060427;28;20533;-55
2022/04/15 01:40:43;;;;;;;15.00;5.50;;;10.60;56.20;;;10.68;45.76;95398.31;5060510;28;20471;-57
2022/04/15 01:43:10;;;;;;;8.87;6.20;;;10.50;56.20;;;10.66;45.69;95392.38;5054538;28;20470;-56
2022/04/15 01:45:38;;;;;;;8.20;6.03;;;10.50;56.30;;;10.63;45.93;95391.75;5051144;28;20559;-56
2022/04/15 01:48:05;;;;;;;16.60;5.10;;;10.50;57.00;;;10.61;46.01;95394.53;5052902;28;20510;-56
2022/04/15 01:50:33;;;;;;;12.47;5.60;;;10.50;57.30;;;10.59;46.19;95386.75;5051846;28;21077;-56
2022/04/15 01:53:00;;;;;;;9.73;6.37;;;10.50;57.40;;;10.57;46.03;95391.31;5056244;28;20463;-55
2022/04/15 01:55:27;;;;;;;10.93;4.87;;;10.50;57.20;;;10.55;46.00;95388.00;5057703;28;20495;-57
2022/04/15 01:57:56;;;;;;;7.53;5.73;;;10.40;57.30;;;10.53;46.15;95391.69;5059742;28;20463;-55
2022/04/15 02:00:23;;;;;;;9.00;5.67;;;10.40;57.20;;;10.49;46.72;95385.03;5053474;28;20478;-55
2022/04/15 02:02:51;;;;;;;12.57;5.47;;;10.40;57.40;;;10.46;46.32;95385.28;5056397;28;20781;-56
2022/04/15 02:05:18;;;;;;;17.07;6.10;;;10.30;57.20;;;10.43;46.09;95385.56;5052206;28;21018;-57
2022/04/15 02:07:45;;;;;;;10.70;5.73;;;10.30;57.20;;;10.38;46.20;95384.13;5053501;28;20822;-56
2022/04/15 02:10:13;;;;;;;7.60;5.57;;;10.30;57.20;;;10.36;46.50;95388.69;5053865;28;20806;-57
2022/04/15 02:12:40;;;;;;;7.13;5.80;;;10.20;57.40;;;10.32;46.94;95381.97;5060478;28;20896;-56
2022/04/15 02:15:09;;;;;;;10.17;5.60;;;10.20;58.20;;;10.28;46.64;95374.44;5057567;28;20499;-55
2022/04/15 02:17:37;;;;;;;12.40;5.73;;;10.20;58.00;;;10.26;46.73;95373.75;5057083;28;20452;-55
2022/04/15 02:20:05;;;;;;;9.80;5.77;;;10.20;58.00;;;10.23;46.90;95372.19;5056234;28;20474;-55
2022/04/15 02:22:32;;;;;;;15.13;6.40;;;10.10;58.60;;;10.21;47.19;95371.50;5055761;28;20459;-57
2022/04/15 02:25:00;;;;;;;7.30;4.73;;;10.10;58.70;;;10.19;47.62;95376.03;5049730;28;20471;-55
2022/04/15 02:27:28;;;;;;;6.90;5.33;;;10.10;59.20;;;10.17;47.23;95377.97;5052939;28;20578;-56
2022/04/15 02:29:55;;;;;;;8.73;5.93;;;10.10;58.90;;;10.14;47.16;95379.03;5055829;28;20572;-56
2022/04/15 02:32:24;;;;;;;8.50;5.10;;;10.00;59.10;;;10.11;47.44;95376.66;5060421;28;20471;-56
2022/04/15 02:34:51;;;;;;;7.23;5.60;;;10.00;59.60;;;10.10;47.52;95377.63;5058942;28;20941;-55
2022/04/15 02:37:18;;;;;;;13.93;5.20;;;10.00;59.50;;;10.08;48.05;95378.69;5055852;28;20498;-56
2022/04/15 02:39:46;;;;;;;11.90;5.40;;;10.00;59.90;;;10.06;47.80;95381.44;5059731;28;21129;-58
2022/04/15 02:42:13;;;;;;;17.67;6.53;;;9.90;60.90;;;10.02;47.53;95377.41;5059848;28;20455;-56
2022/04/15 02:44:40;;;;;;;8.73;5.33;;;9.90;60.90;;;9.99;47.47;95386.38;5049779;28;20583;-55
2022/04/15 02:47:09;;;;;;;11.03;4.57;;;9.90;60.80;;;9.96;47.77;95381.38;5053027;28;20460;-56
2022/04/15 02:49:37;;;;;;;11.63;5.10;;;9.90;62.20;;;9.92;47.67;95382.56;5055678;28;20811;-55
2022/04/15 02:52:06;;;;;;;7.53;5.03;;;9.80;60.40;;;9.90;46.91;95383.63;5057366;28;20571;-55
2022/04/15 02:54:33;;;;;;;6.33;4.53;;;9.80;59.80;;;9.82;47.79;95374.59;5057364;28;20559;-56
2022/04/15 02:57:00;;;;;;;9.70;5.40;;;9.70;60.60;;;9.80;47.22;95379.13;5054735;28;20821;-56
2022/04/15 02:59:27;;;;;;;8.53;5.33;;;9.70;60.80;;;9.75;47.25;95381.28;5054222;28;20513;-55
2022/04/15 03:01:54;;;;;;;20.13;5.73;;;9.70;59.70;;;9.69;47.28;95373.88;5054301;28;20455;-59
2022/04/15 03:04:22;;;;;;;11.13;5.00;;;9.60;60.40;;;9.65;47.89;95386.44;5053098;28;20455;-56
2022/04/15 03:06:50;;;;;;;9.30;4.67;;;9.60;61.10;;;9.65;47.66;95393.47;5050605;28;20517;-57
2022/04/15 03:09:18;;;;;;;9.20;5.23;;;9.60;61.40;;;9.62;47.74;95385.81;5057488;28;20463;-56
2022/04/15 03:11:45;;;;;;;21.73;6.33;;;9.50;61.40;;;9.61;47.92;95387.63;5055278;28;20517;-55
2022/04/15 03:14:12;;;;;;;10.33;6.30;;;9.50;61.70;;;9.59;47.66;95379.03;5056013;28;20490;-55
2022/04/15 03:16:40;;;;;;;12.03;5.03;;;9.50;61.50;;;9.60;47.43;95378.06;5057106;28;20472;-56
2022/04/15 03:19:07;;;;;;;11.20;5.37;;;9.50;61.10;;;9.57;47.85;95383.56;5052191;28;20463;-57
2022/04/15 03:21:35;;;;;;;11.30;5.13;;;9.50;61.80;;;9.55;47.71;95385.47;5052768;28;20483;-55
2022/04/15 03:24:05;;;;;;;20.37;5.77;;;9.50;61.50;;;9.52;47.98;95385.72;5054136;28;20459;-56
2022/04/15 03:26:32;;;;;;;10.70;5.70;;;9.40;61.60;;;9.51;47.72;95382.28;5051016;28;20553;-56
2022/04/15 03:28:59;;;;;;;15.33;5.77;;;9.40;61.40;;;9.50;47.97;95387.66;5056784;28;20462;-56
2022/04/15 03:31:26;;;;;;;14.63;7.23;;;9.40;62.00;;;9.51;48.27;95394.53;5054917;28;21033;-55
2022/04/15 03:33:54;;;;;;;7.10;5.63;;;9.40;62.30;;;9.48;48.62;95393.03;5054350;28;20494;-56
2022/04/15 03:36:21;;;;;;;14.73;5.90;;;9.40;63.10;;;9.47;48.88;95393.97;5059421;28;20483;-56
2022/04/15 03:38:48;;;;;;;14.90;5.80;;;9.40;63.30;;;9.46;49.07;95399.34;5058390;28;20450;-56
2022/04/15 03:41:17;;;;;;;14.17;6.77;;;9.30;63.20;;;9.43;49.25;95396.94;5051634;28;20468;-59
2022/04/15 03:43:44;;;;;;;12.60;6.13;;;9.30;63.60;;;9.43;48.91;95397.78;5058497;28;20542;-58
2022/04/15 03:46:12;;;;;;;10.03;5.50;;;9.30;63.10;;;9.42;48.78;95403.16;5052692;28;21021;-56
2022/04/15 03:48:39;;;;;;;15.17;6.10;;;9.30;64.00;;;9.41;49.33;95401.50;5056735;28;20960;-56
2022/04/15 03:51:08;;;;;;;15.63;6.20;;;9.30;64.10;;;9.39;48.90;95401.63;5054747;28;20470;-57
2022/04/15 03:53:35;;;;;;;15.47;5.40;;;9.30;64.10;;;9.38;49.22;95396.47;5058623;28;20460;-57
2022/04/15 03:56:03;;;;;;;16.07;6.57;;;9.30;63.60;;;9.38;49.37;95399.09;5053613;28;20490;-55
2022/04/15 03:58:32;;;;;;;15.23;6.47;;;9.30;64.10;;;9.37;49.38;95402.69;5062349;28;21098;-57
2022/04/15 04:00:59;;;;;;;20.37;6.97;;;9.30;64.60;;;9.36;49.30;95408.88;5052123;28;20471;-55
2022/04/15 04:03:27;;;;;;;14.77;6.83;;;9.30;65.00;;;9.36;49.43;95401.84;5059522;28;20465;-57
2022/04/15 04:05:54;;;;;;;15.53;6.80;;;9.30;64.80;;;9.36;49.46;95406.25;5052825;28;20493;-58
2022/04/15 04:08:21;;;;;;;24.63;6.50;;;9.30;65.00;;;9.36;49.21;95408.88;5054278;28;20464;-54
2022/04/15 04:10:48;;;;;;;14.50;6.57;;;9.30;65.00;;;9.36;49.76;95406.25;5055037;28;20479;-55
2022/04/15 04:13:16;;;;;;;20.83;6.30;;;9.30;65.50;;;9.38;49.78;95409.59;5057851;28;20451;-57
2022/04/15 04:15:44;;;;;;;19.03;7.80;;;9.30;66.00;;;9.36;50.02;95416.75;5048974;28;20514;-55
2022/04/15 04:18:14;;;;;;;20.37;5.93;;;9.30;66.30;;;9.35;49.80;95415.09;5048988;28;21064;-58
2022/04/15 04:20:41;;;;;;;24.10;7.50;;;9.20;65.90;;;9.35;49.54;95415.09;5054509;28;20482;-56
2022/04/15 04:23:09;;;;;;;20.37;7.63;;;9.20;66.50;;;9.37;50.21;95423.69;5053336;28;20574;-56
2022/04/15 04:25:36;;;;;;;31.23;7.80;;;9.30;66.30;;;9.38;49.87;95422.72;5056019;28;20862;-55
2022/04/15 04:28:04;;;;;;;22.30;7.60;;;9.30;66.40;;;9.39;49.19;95421.75;5057999;28;20491;-56
2022/04/15 04:30:32;;;;;;;22.43;7.03;;;9.30;66.30;;;9.40;49.69;95426.88;5059818;28;20574;-57
2022/04/15 04:33:00;;;;;;;34.20;7.90;;;9.30;66.30;;;9.41;49.76;95431.19;5058542;28;20486;-58
2022/04/15 04:35:28;;;;;;;31.50;9.40;;;9.30;66.40;;;9.44;49.79;95420.47;5055800;28;21018;-58
2022/04/15 04:37:55;;;;;;;34.57;10.13;;;9.30;66.20;;;9.47;49.65;95424.66;5055608;28;20455;-57
2022/04/15 04:40:23;;;;;;;34.13;10.03;;;9.40;66.10;;;9.49;49.69;95425.34;5051146;28;20471;-56
2022/04/15 04:42:51;;;;;;;30.43;9.70;;;9.40;66.50;;;9.51;49.99;95426.06;5051175;28;20463;-55
2022/04/15 04:45:19;;;;;;;37.60;9.00;;;9.40;66.30;;;9.50;49.21;95427.88;5055169;28;20486;-56
2022/04/15 04:47:47;;;;;;;49.73;11.40;;;9.40;65.80;;;9.56;49.14;95426.56;5055210;28;20463;-56
2022/04/15 04:50:15;;;;;;;20.30;10.97;;;9.50;66.00;;;9.59;49.62;95434.19;5056174;28;20519;-56
2022/04/15 04:52:43;;;;;;;40.70;9.73;;;9.50;65.50;;;9.60;49.03;95445.53;5053355;28;20479;-55
2022/04/15 04:55:11;;;;;;;23.10;9.00;;;9.50;64.30;;;9.60;48.38;95441.09;5048258;28;20487;-57
2022/04/15 04:57:42;;;;;;;23.10;10.03;;;9.50;64.10;;;9.64;48.49;95432.03;5047864;28;20455;-56
2022/04/15 05:00:11;;;;;;;33.10;10.33;;;9.50;63.80;;;9.67;48.01;95428.34;5051129;28;20476;-56
2022/04/15 05:02:38;;;;;;;18.53;10.03;;;9.50;63.40;;;9.70;48.04;95433.34;5054209;28;20542;-55
2022/04/15 05:05:07;;;;;;;22.50;10.17;;;9.60;63.40;;;9.75;48.35;95440.88;5061283;28;20490;-57
2022/04/15 05:07:36;;;;;;;21.67;9.70;;;9.60;63.40;;;9.78;48.07;95448.50;5060763;28;20466;-57
2022/04/15 05:10:05;;;;;;;25.83;9.90;;;9.70;63.60;;;9.81;48.48;95443.03;5055832;28;20813;-57
2022/04/15 05:12:33;;;;;;;19.83;9.60;;;9.70;63.60;;;9.87;48.18;95453.88;5052503;28;20998;-59
2022/04/15 05:15:01;;;;;;;30.57;10.40;;;9.80;63.60;;;9.92;47.99;95443.00;5051104;28;20523;-57
2022/04/15 05:17:28;;;;;;;24.23;9.70;;;9.80;63.60;;;9.99;48.26;95446.81;5054156;28;20851;-57
2022/04/15 05:19:55;;;;;;;39.37;10.20;;;9.90;63.30;;;10.08;48.09;95444.41;5059867;28;20628;-57
2022/04/15 05:22:23;;;;;;;22.37;10.23;;;9.90;63.30;;;10.14;48.00;95449.16;5057438;28;20462;-57
2022/04/15 05:24:52;;;;;;;27.67;11.30;;;10.00;61.90;;;10.20;47.70;95453.94;5058382;28;20497;-56
2022/04/15 05:27:20;;;;;;;32.43;11.80;;;10.10;61.60;;;10.25;48.40;95440.44;5056871;28;20490;-56
2022/04/15 05:29:47;;;;;;;26.83;11.47;;;10.10;62.40;;;10.31;47.86;95440.75;5062120;28;21059;-57
2022/04/15 05:32:15;;;;;;;22.27;11.57;;;10.20;61.80;;;10.42;47.43;95442.56;5052441;28;20464;-61
2022/04/15 05:34:44;;;;;;;32.20;11.47;;;10.30;61.80;;;10.56;47.54;95444.06;5052247;28;20514;-56
2022/04/15 05:37:12;;;;;;;37.37;13.83;;;10.40;61.50;;;10.75;47.41;95444.22;5054033;28;20486;-57
2022/04/15 05:39:39;;;;;;;37.73;15.50;;;10.50;61.60;;;10.94;47.25;95443.53;5055764;28;20459;-57
2022/04/15 05:42:09;;;;;;;50.03;15.23;;;10.70;61.10;;;11.13;47.51;95448.06;5056805;28;20451;-57
2022/04/15 05:44:36;;;;;;;37.30;13.53;;;10.90;61.80;;;11.32;46.68;95451.78;5059939;28;20452;-56
2022/04/15 05:47:04;;;;;;;44.23;14.03;;;11.10;60.60;;;11.53;46.72;95450.94;5056400;28;20475;-55
2022/04/15 05:49:34;;;;;;;34.90;13.87;;;11.30;60.40;;;11.73;46.73;95442.16;5059682;28;20463;-57
2022/04/15 05:52:01;;;;;;;37.53;9.97;;;11.50;60.20;;;11.94;45.93;95446.56;5052416;28;20456;-57
2022/04/15 05:54:28;;;;;;;39.30;11.90;;;11.70;59.50;;;12.15;45.67;95447.31;5047310;28;21010;-57
2022/04/15 05:56:56;;;;;;;40.60;12.00;;;11.80;59.00;;;12.36;45.02;95443.72;5050712;28;20458;-56
2022/04/15 05:59:24;;;;;;;22.50;10.97;;;12.00;58.30;;;12.56;44.72;95436.66;5056819;28;20451;-58
2022/04/15 06:01:52;;;;;;;27.30;11.73;;;12.20;57.70;;;12.74;44.76;95439.47;5056547;28;20967;-56
2022/04/15 06:04:19;;;;;;;40.47;12.27;;;12.40;57.20;;;12.93;44.49;95435.16;5054211;28;20499;-56
2022/04/15 06:06:47;;;;;;;35.63;12.80;;;12.60;57.00;;;13.15;44.44;95437.50;5059826;28;20466;-57
2022/04/15 06:09:14;;;;;;;31.30;11.50;;;12.80;57.00;;;13.35;43.83;95432.19;5051329;28;20553;-56
2022/04/15 06:11:42;;;;;;;26.67;10.20;;;13.00;56.50;;;13.55;43.90;95428.50;5059299;28;20475;-58
2022/04/15 06:14:09;;;;;;;49.83;10.40;;;13.20;56.30;;;13.76;43.45;95433.59;5050940;28;20562;-58
2022/04/15 06:16:42;;;;;;;28.60;10.47;;;13.40;55.80;;;13.93;43.12;95439.91;5051861;28;20590;-56
2022/04/15 06:19:09;;;;;;;26.17;9.80;;;13.60;55.40;;;14.06;43.16;95430.81;5052912;28;20455;-58
2022/04/15 06:21:36;;;;;;;27.67;10.00;;;13.70;54.80;;;14.20;42.43;95430.31;5055920;28;20848;-57
2022/04/15 06:24:06;;;;;;;20.03;10.37;;;13.80;54.20;;;14.38;42.47;95424.22;5056341;28;20452;-57
2022/04/15 06:26:34;;;;;;;16.17;9.40;;;14.00;54.10;;;14.63;42.10;95426.16;5051524;28;20871;-57
2022/04/15 06:29:01;;;;;;;12.37;9.70;;;14.20;53.80;;;14.86;41.16;95426.53;5050759;28;20518;-57
2022/04/15 06:31:29;;;;;;;20.07;9.77;;;14.40;52.00;;;15.09;41.02;95427.84;5050309;28;20510;-57
2022/04/15 06:33:57;;;;;;;21.80;9.80;;;14.70;52.10;;;15.29;40.46;95426.69;5057623;28;20547;-57
2022/04/15 06:36:25;;;;;;;15.87;8.30;;;14.90;51.40;;;15.47;40.67;95431.09;5054217;28;20497;-58
2022/04/15 06:38:52;;;;;;;14.57;8.97;;;15.10;51.30;;;15.64;40.08;95426.75;5057135;28;20460;-56
2022/04/15 06:41:19;;;;;;;23.20;11.37;;;15.20;50.90;;;15.77;40.13;95417.38;5058415;28;20974;-57
2022/04/15 06:43:47;;;;;;;22.10;8.40;;;15.40;50.80;;;15.96;39.73;95412.84;5059479;28;20457;-58
2022/04/15 06:46:14;;;;;;;20.10;9.17;;;15.50;50.60;;;16.16;39.18;95425.81;5056660;28;20529;-58
2022/04/15 06:48:41;;;;;;;19.60;9.30;;;15.70;49.60;;;16.39;38.75;95420.75;5051269;28;20467;-57
2022/04/15 06:51:10;;;;;;;12.13;7.80;;;15.90;49.10;;;16.60;38.45;95413.16;5052761;28;20490;-57
2022/04/15 06:53:37;;;;;;;25.00;9.10;;;16.20;48.90;;;16.82;38.02;95417.03;5055782;28;20824;-59
2022/04/15 06:56:05;;;;;;;13.13;8.47;;;16.40;48.20;;;17.01;37.88;95409.75;5057710;28;21009;-57
2022/04/15 06:58:32;;;;;;;14.33;8.23;;;16.60;48.10;;;17.25;37.76;95416.06;5059373;28;20627;-57
2022/04/15 07:01:00;;;;;;;19.70;8.90;;;16.80;47.80;;;17.47;37.61;95419.84;5059159;28;20544;-58
2022/04/15 07:03:27;;;;;;;14.60;8.37;;;17.00;47.40;;;17.68;36.78;95422.78;5060674;28;20824;-58
2022/04/15 07:05:54;;;;;;;42.23;8.77;;;17.20;46.40;;;17.91;37.03;95408.78;5055296;28;20486;-57
2022/04/15 07:08:23;;;;;;;14.20;8.40;;;17.50;47.10;;;18.17;36.88;95413.00;5057591;28;20478;-58
2022/04/15 07:10:51;;;;;;;14.40;7.67;;;17.70;46.50;;;18.34;36.20;95405.75;5063591;28;20477;-58
2022/04/15 07:13:18;;;;;;;22.20;8.80;;;17.90;45.60;;;18.40;35.52;95405.91;5055402;28;20443;-59
2022/04/15 07:15:45;;;;;;;21.37;8.80;;;18.00;45.60;;;18.46;35.86;95409.69;5056496;28;20575;-59
2022/04/15 07:18:12;;;;;;;20.23;8.30;;;18.00;45.10;;;18.56;35.26;95398.78;5060576;28;20451;-57
2022/04/15 07:20:40;;;;;;;17.47;7.77;;;18.10;44.70;;;18.74;35.55;95406.50;5058398;28;21006;-58
2022/04/15 07:23:07;;;;;;;16.67;7.50;;;18.20;44.90;;;18.97;34.83;95398.53;5056075;28;20457;-58
2022/04/15 07:25:36;;;;;;;9.63;5.87;;;18.50;44.80;;;19.23;34.27;95390.16;5053712;28;20805;-56
2022/04/15 07:28:03;;;;;;;8.70;6.50;;;18.70;44.10;;;19.52;34.31;95394.72;5053202;28;20474;-59
2022/04/15 07:30:30;;;;;;;14.57;6.80;;;19.00;43.70;;;19.87;33.62;95394.19;5053107;28;20471;-57
2022/04/15 07:32:59;;;;;;;13.90;7.53;;;19.30;43.00;;;20.20;33.69;95396.47;5058405;28;20473;-58
2022/04/15 07:35:27;;;;;;;13.97;7.00;;;19.70;42.60;;;20.53;33.56;95390.69;5055464;28;20935;-57
2022/04/15 07:37:54;;;;;;;20.90;7.00;;;20.00;42.50;;;20.82;33.24;95389.81;5056221;28;20448;-58
2022/04/15 07:40:27;;;;;;;10.73;6.17;;;20.30;42.10;;;21.16;32.38;95395.44;5059144;28;20474;-57
2022/04/15 07:42:57;;;;;;;18.80;7.70;;;20.60;41.60;;;21.43;32.08;95383.09;5057496;28;20526;-58
2022/04/15 07:45:24;;;;;;;13.47;7.37;;;20.90;41.20;;;21.52;31.61;95387.31;5054200;28;20475;-58
2022/04/15 07:47:51;;;;;;;17.50;6.03;;;21.00;40.40;;;21.60;31.31;95387.16;5051959;28;20450;-57
2022/04/15 07:50:22;;;;;;;14.70;6.20;;;21.10;40.20;;;21.80;30.97;95375.75;5054821;28;20977;-56
2022/04/15 07:52:49;;;;;;;12.90;5.00;;;21.30;39.70;;;22.09;30.35;95382.72;5059663;28;20529;-58
2022/04/15 07:55:16;;;;;;;9.50;4.60;;;21.50;39.10;;;22.46;30.06;95387.81;5058221;28;20471;-58
2022/04/15 07:57:44;;;;;;;7.20;5.07;;;21.80;38.60;;;22.85;29.53;95388.94;5058819;28;20453;-56
2022/04/15 08:00:14;;;;;;;9.97;4.83;;;22.20;38.60;;;23.31;29.84;95385.50;5054265;28;20463;-58
2022/04/15 08:02:41;;;;;;;6.83;4.60;;;22.70;38.20;;;23.71;28.72;95387.34;5055319;28;20443;-57
2022/04/15 08:05:09;;;;;;;8.27;4.23;;;23.20;37.20;;;24.07;28.80;95376.09;5049241;28;20567;-59
2022/04/15 08:07:36;;;;;;;5.47;4.90;;;23.70;36.90;;;24.39;27.54;95378.91;5056821;28;20484;-57
2022/04/15 08:10:05;;;;;;;16.87;5.10;;;24.00;35.50;;;24.49;27.04;95378.44;5058016;28;20764;-59
2022/04/15 08:12:32;;;;;;;7.70;5.17;;;24.30;34.90;;;24.57;27.03;95378.22;5058926;28;20476;-58
2022/04/15 08:15:00;;;;;;;10.73;4.50;;;24.30;35.30;;;24.77;27.42;95371.91;5055930;28;21003;-58
2022/04/15 08:17:29;;;;;;;8.17;4.73;;;24.50;34.50;;;25.05;27.33;95369.66;5056269;28;20488;-58
2022/04/15 08:19:58;;;;;;;9.30;6.13;;;24.80;34.70;;;25.31;26.55;95365.13;5056004;28;20891;-57
2022/04/15 08:22:26;;;;;;;7.87;5.50;;;25.10;33.80;;;25.52;26.29;95369.28;5052685;28;20970;-57
2022/04/15 08:24:54;;;;;;;9.70;4.53;;;25.40;33.80;;;25.82;26.00;95365.06;5053030;28;20483;-58
2022/04/15 08:27:22;;;;;;;11.57;6.20;;;25.70;33.30;;;26.10;25.49;95362.72;5057495;28;20894;-59
2022/04/15 08:29:49;;;;;;;10.53;5.90;;;26.00;32.10;;;26.36;25.42;95363.44;5051800;28;21039;-57
2022/04/15 08:32:17;;;;;;;8.17;6.60;;;26.30;32.50;;;26.57;25.54;95366.69;5054975;28;20463;-58
2022/04/15 08:34:46;;;;;;;8.80;6.17;;;26.50;31.80;;;26.73;25.49;95360.69;5054392;28;20572;-58
2022/04/15 08:37:13;;;;;;;10.97;5.43;;;26.70;32.10;;;26.68;24.58;95357.03;5058652;28;20496;-58
2022/04/15 08:39:41;;;;;;;6.70;5.30;;;26.60;31.30;;;26.42;24.61;95350.94;5053881;28;20472;-58
2022/04/15 08:42:09;;;;;;;6.23;4.97;;;26.30;31.10;;;26.21;24.77;95346.81;5055358;28;21187;-56
2022/04/15 08:44:36;;;;;;;10.43;4.80;;;26.00;31.00;;;26.18;24.40;95342.72;5054780;28;20451;-58
2022/04/15 08:47:04;;;;;;;12.77;4.40;;;25.80;30.80;;;26.20;25.05;95335.22;5062603;28;20457;-58
2022/04/15 08:49:31;;;;;;;10.73;3.70;;;25.80;30.80;;;26.28;24.68;95324.13;5056804;28;20459;-57
2022/04/15 08:52:00;;;;;;;6.13;4.10;;;25.90;30.90;;;26.47;24.25;95330.28;5061051;28;20796;-58
2022/04/15 08:54:28;;;;;;;7.17;5.20;;;25.90;30.90;;;26.60;24.02;95323.06;5059295;28;20585;-57
2022/04/15 08:56:55;;;;;;;7.93;5.13;;;26.10;30.40;;;26.71;24.33;95330.44;5059305;28;21074;-57
2022/04/15 08:59:23;;;;;;;11.50;4.30;;;26.20;31.00;;;26.76;24.27;95316.25;5066124;28;20463;-59
2022/04/15 09:01:51;;;;;;;7.90;4.83;;;26.30;30.80;;;26.82;24.33;95312.63;5059187;28;20473;-59
2022/04/15 09:04:19;;;;;;;9.23;4.67;;;26.30;30.80;;;26.85;24.43;95314.88;5053687;28;20984;-58
2022/04/15 09:06:46;;;;;;;12.63;5.27;;;26.40;31.20;;;26.92;24.47;95314.75;5060801;28;20564;-56
2022/04/15 09:09:15;;;;;;;12.90;5.07;;;26.40;31.20;;;26.94;24.53;95307.25;5057828;28;20463;-57
2022/04/15 09:11:44;;;;;;;14.63;6.70;;;26.40;31.10;;;26.83;24.18;95298.91;5057314;28;20901;-58
2022/04/15 09:14:13;;;;;;;27.30;5.57;;;26.40;29.90;;;26.71;24.02;95292.66;5061178;28;21142;-57
2022/04/15 09:16:41;;;;;;;20.93;6.80;;;26.30;30.10;;;26.60;24.26;95288.00;5059353;28;20578;-59
2022/04/15 09:19:08;;;;;;;10.63;6.50;;;26.10;30.40;;;26.63;24.36;95293.78;5060888;28;20549;-57
2022/04/15 09:21:35;;;;;;;10.13;5.20;;;26.10;31.00;;;26.68;24.01;95282.31;5052522;28;20991;-58
2022/04/15 09:24:03;;;;;;;18.57;5.30;;;26.10;30.20;;;26.68;23.98;95287.72;5057346;28;20447;-58
2022/04/15 09:26:32;;;;;;;8.43;5.50;;;26.20;30.40;;;26.74;23.63;95275.16;5063121;28;20550;-56
2022/04/15 09:28:59;;;;;;;15.90;6.00;;;26.20;30.10;;;26.80;24.30;95277.78;5061562;28;20622;-57
2022/04/15 09:31:26;;;;;;;19.33;6.17;;;26.30;30.40;;;26.88;24.03;95271.22;5057209;28;20974;-55
2022/04/15 09:33:55;;;;;;;5.67;4.90;;;26.30;30.40;;;26.90;23.24;95270.97;5060147;28;20461;-56
2022/04/15 09:36:27;;;;;;;8.80;5.23;;;26.30;29.70;;;26.90;23.93;95263.69;5062658;28;20495;-57
2022/04/15 09:39:10;;;;;;;9.97;5.37;;;26.40;30.20;;;26.98;23.51;95259.84;5050507;28;20521;-57
2022/04/15 09:41:40;;;;;;;14.20;6.37;;;26.40;30.10;;;27.00;22.76;95257.72;5058654;28;20481;-59
2022/04/15 09:44:07;;;;;;;13.03;5.93;;;26.50;28.90;;;26.89;23.43;95250.44;5063532;28;20458;-57
2022/04/15 09:46:34;;;;;;;11.57;6.50;;;26.40;29.40;;;26.80;23.12;95239.97;5057701;28;21002;-58
2022/04/15 09:49:07;;;;;;;12.70;5.60;;;26.30;29.40;;;26.69;23.27;95232.66;5059766;28;20447;-57
2022/04/15 09:51:39;;;;;;;7.40;5.43;;;26.20;29.40;;;26.63;23.82;95234.41;5058457;28;20485;-58
2022/04/15 09:54:07;;;;;;;16.93;6.30;;;26.20;29.90;;;26.64;23.66;95227.13;5056067;28;20459;-57
2022/04/15 09:56:35;;;;;;;17.43;6.40;;;26.10;29.90;;;26.58;23.84;95222.66;5060768;28;20559;-57
2022/04/15 09:59:11;;;;;;;13.93;6.30;;;26.10;29.70;;;26.55;23.62;95223.94;5051697;28;20855;-58
2022/04/15 10:01:42;;;;;;;9.07;6.23;;;26.10;29.90;;;26.57;23.42;95221.00;5060031;28;21089;-57
2022/04/15 10:04:10;;;;;;;13.30;5.77;;;26.10;30.10;;;26.46;24.53;95215.38;5059657;28;20444;-58
2022/04/15 10:06:39;;;;;;;16.03;6.07;;;26.00;30.20;;;26.42;24.25;95208.78;5059557;28;20578;-57
2022/04/15 10:09:06;;;;;;;12.87;6.70;;;25.90;30.40;;;26.43;24.34;95202.34;5057376;28;20459;-60
2022/04/15 10:11:35;;;;;;;20.27;6.80;;;25.90;30.50;;;26.39;23.84;95195.75;5061199;28;20466;-56
2022/04/15 10:14:03;;;;;;;13.40;5.43;;;25.90;30.20;;;26.39;23.89;95198.44;5057320;28;20462;-57
2022/04/15 10:16:33;;;;;;;12.23;5.77;;;25.80;30.50;;;26.40;23.91;95189.31;5052653;28;20627;-57
2022/04/15 10:19:03;;;;;;;16.50;5.63;;;25.80;30.10;;;26.37;23.74;95184.38;5053207;28;20487;-57
2022/04/15 10:21:33;;;;;;;10.93;5.80;;;25.90;30.20;;;26.41;23.68;95190.94;5054273;28;20525;-57